sensor_id;sensor_type;location;lat;lon;timestamp;pressure;altitude;pressure_sealevel;temperature;humidity
62617;BME280;76316;51.190;6.808;2024-03-22T00:01:57;101921.78;;;19.86;57.84
62617;BME280;76316;51.190;6.808;2024-03-22T00:04:23;101922.72;;;19.83;57.87
62617;BME280;76316;51.190;6.808;2024-03-22T00:06:49;101918.44;;;19.78;58.69
62617;BME280;76316;51.190;6.808;2024-03-22T00:09:16;101929.09;;;19.72;58.88
62617;BME280;76316;51.190;6.808;2024-03-22T00:11:43;101928.31;;;19.68;58.81
62617;BME280;76316;51.190;6.808;2024-03-22T00:14:09;101924.03;;;19.62;59.08
62617;BME280;76316;51.190;6.808;2024-03-22T00:16:35;101927.63;;;19.58;59.36
62617;BME280;76316;51.190;6.808;2024-03-22T00:19:02;101924.16;;;19.56;59.19
62617;BME280;76316;51.190;6.808;2024-03-22T00:21:28;101917.16;;;19.55;59.24
62617;BME280;76316;51.190;6.808;2024-03-22T00:23:54;101912.84;;;19.51;59.40
62617;BME280;76316;51.190;6.808;2024-03-22T00:26:20;101914.66;;;19.49;59.20
62617;BME280;76316;51.190;6.808;2024-03-22T00:28:46;101907.72;;;19.46;59.49
62617;BME280;76316;51.190;6.808;2024-03-22T00:31:11;101909.50;;;19.44;59.57
62617;BME280;76316;51.190;6.808;2024-03-22T00:33:37;101904.31;;;19.41;59.57
62617;BME280;76316;51.190;6.808;2024-03-22T00:36:02;101904.31;;;19.39;59.68
62617;BME280;76316;51.190;6.808;2024-03-22T00:38:28;101900.84;;;19.37;59.79
62617;BME280;76316;51.190;6.808;2024-03-22T00:40:55;101884.22;;;19.35;59.65
62617;BME280;76316;51.190;6.808;2024-03-22T00:43:20;101887.75;;;19.34;59.69
62617;BME280;76316;51.190;6.808;2024-03-22T00:45:46;101885.19;;;19.31;59.81
62617;BME280;76316;51.190;6.808;2024-03-22T00:48:12;101877.28;;;19.31;59.83
62617;BME280;76316;51.190;6.808;2024-03-22T00:50:37;101874.72;;;19.28;59.95
62617;BME280;76316;51.190;6.808;2024-03-22T00:53:03;101869.53;;;19.25;59.93
62617;BME280;76316;51.190;6.808;2024-03-22T00:55:30;101873.06;;;19.24;60.08
62617;BME280;76316;51.190;6.808;2024-03-22T00:57:56;101864.31;;;19.22;60.07
62617;BME280;76316;51.190;6.808;2024-03-22T01:00:21;101858.22;;;19.20;60.19
62617;BME280;76316;51.190;6.808;2024-03-22T01:02:47;101860.84;;;19.20;60.31
62617;BME280;76316;51.190;6.808;2024-03-22T01:05:12;101860.91;;;19.18;60.24
62617;BME280;76316;51.190;6.808;2024-03-22T01:07:39;101856.53;;;19.17;60.25
62617;BME280;76316;51.190;6.808;2024-03-22T01:10:05;101855.66;;;19.17;59.87
62617;BME280;76316;51.190;6.808;2024-03-22T01:12:31;101858.34;;;19.14;60.27
62617;BME280;76316;51.190;6.808;2024-03-22T01:14:56;101851.34;;;19.13;60.32
62617;BME280;76316;51.190;6.808;2024-03-22T01:17:23;101846.09;;;19.13;60.14
62617;BME280;76316;51.190;6.808;2024-03-22T01:19:48;101846.97;;;19.13;60.38
62617;BME280;76316;51.190;6.808;2024-03-22T01:22:14;101849.63;;;19.12;60.30
62617;BME280;76316;51.190;6.808;2024-03-22T01:24:39;101840.88;;;19.09;60.31
62617;BME280;76316;51.190;6.808;2024-03-22T01:27:05;101840.88;;;19.09;60.33
62617;BME280;76316;51.190;6.808;2024-03-22T01:29:30;101839.16;;;19.08;60.43
62617;BME280;76316;51.190;6.808;2024-03-22T01:31:57;101841.84;;;19.07;60.47
62617;BME280;76316;51.190;6.808;2024-03-22T01:34:23;101830.44;;;19.06;60.31
62617;BME280;76316;51.190;6.808;2024-03-22T01:36:50;101834.78;;;19.07;60.25
62617;BME280;76316;51.190;6.808;2024-03-22T01:39:16;101830.44;;;19.06;60.44
62617;BME280;76316;51.190;6.808;2024-03-22T01:41:43;101826.97;;;19.04;60.45
62617;BME280;76316;51.190;6.808;2024-03-22T01:44:09;101813.88;;;19.03;60.26
62617;BME280;76316;51.190;6.808;2024-03-22T01:46:34;101811.25;;;19.01;60.33
62617;BME280;76316;51.190;6.808;2024-03-22T01:49:00;101812.97;;;19.02;60.38
62617;BME280;76316;51.190;6.808;2024-03-22T01:51:26;101801.63;;;19.00;60.42
62617;BME280;76316;51.190;6.808;2024-03-22T01:53:52;101806.00;;;19.01;60.46
62617;BME280;76316;51.190;6.808;2024-03-22T01:56:19;101805.19;;;18.98;60.46
62617;BME280;76316;51.190;6.808;2024-03-22T01:58:46;101796.44;;;18.97;60.53
62617;BME280;76316;51.190;6.808;2024-03-22T02:01:11;101802.56;;;18.96;60.40
62617;BME280;76316;51.190;6.808;2024-03-22T02:03:37;101804.31;;;18.95;60.41
62617;BME280;76316;51.190;6.808;2024-03-22T02:06:02;101793.81;;;18.94;60.65
62617;BME280;76316;51.190;6.808;2024-03-22T02:08:28;101790.34;;;18.92;60.58
62617;BME280;76316;51.190;6.808;2024-03-22T02:10:53;101781.63;;;18.91;60.34
62617;BME280;76316;51.190;6.808;2024-03-22T02:13:19;101781.63;;;18.90;60.46
62617;BME280;76316;51.190;6.808;2024-03-22T02:15:44;101778.13;;;18.91;60.45
62617;BME280;76316;51.190;6.808;2024-03-22T02:18:10;101767.63;;;18.89;60.60
62617;BME280;76316;51.190;6.808;2024-03-22T02:20:35;101757.13;;;18.88;60.60
62617;BME280;76316;51.190;6.808;2024-03-22T02:23:00;101758.94;;;18.86;60.62
62617;BME280;76316;51.190;6.808;2024-03-22T02:25:26;101761.56;;;18.86;60.61
62617;BME280;76316;51.190;6.808;2024-03-22T02:27:51;101749.31;;;18.85;60.54
62617;BME280;76316;51.190;6.808;2024-03-22T02:30:17;101744.94;;;18.84;60.66
62617;BME280;76316;51.190;6.808;2024-03-22T02:32:42;101744.94;;;18.84;60.55
62617;BME280;76316;51.190;6.808;2024-03-22T02:35:08;101742.38;;;18.82;60.70
62617;BME280;76316;51.190;6.808;2024-03-22T02:37:34;101728.31;;;18.83;60.69
62617;BME280;76316;51.190;6.808;2024-03-22T02:39:59;101735.38;;;18.81;60.73
62617;BME280;76316;51.190;6.808;2024-03-22T02:42:25;101731.03;;;18.80;60.80
62617;BME280;76316;51.190;6.808;2024-03-22T02:44:50;101725.75;;;18.80;60.75
62617;BME280;76316;51.190;6.808;2024-03-22T02:47:16;101731.91;;;18.79;60.68
62617;BME280;76316;51.190;6.808;2024-03-22T02:49:41;101736.28;;;18.78;60.79
62617;BME280;76316;51.190;6.808;2024-03-22T02:52:07;101728.41;;;18.78;60.71
62617;BME280;76316;51.190;6.808;2024-03-22T02:54:32;101725.81;;;18.77;60.59
62617;BME280;76316;51.190;6.808;2024-03-22T02:56:58;101730.19;;;18.76;60.66
62617;BME280;76316;51.190;6.808;2024-03-22T02:59:26;101727.56;;;18.76;60.68
62617;BME280;76316;51.190;6.808;2024-03-22T03:01:52;101723.22;;;18.75;60.71
62617;BME280;76316;51.190;6.808;2024-03-22T03:04:17;101729.38;;;18.74;60.84
62617;BME280;76316;51.190;6.808;2024-03-22T03:06:43;101725.00;;;18.75;60.79
62617;BME280;76316;51.190;6.808;2024-03-22T03:09:10;101709.22;;;18.73;60.70
62617;BME280;76316;51.190;6.808;2024-03-22T03:11:38;101711.88;;;18.73;60.73
62617;BME280;76316;51.190;6.808;2024-03-22T03:14:04;101702.25;;;18.72;60.77
62617;BME280;76316;51.190;6.808;2024-03-22T03:16:29;101697.03;;;18.71;60.57
62617;BME280;76316;51.190;6.808;2024-03-22T03:18:55;101695.31;;;18.70;60.60
62617;BME280;76316;51.190;6.808;2024-03-22T03:21:20;101692.69;;;18.68;60.81
62617;BME280;76316;51.190;6.808;2024-03-22T03:23:45;101696.22;;;18.67;60.73
62617;BME280;76316;51.190;6.808;2024-03-22T03:26:11;101687.47;;;18.66;60.57
62617;BME280;76316;51.190;6.808;2024-03-22T03:28:36;101683.97;;;18.66;60.96
62617;BME280;76316;51.190;6.808;2024-03-22T03:31:02;101689.28;;;18.63;60.92
62617;BME280;76316;51.190;6.808;2024-03-22T03:33:27;101674.41;;;18.62;60.94
62617;BME280;76316;51.190;6.808;2024-03-22T03:35:53;101670.94;;;18.60;61.04
62617;BME280;76316;51.190;6.808;2024-03-22T03:38:18;101678.00;;;18.58;60.99
62617;BME280;76316;51.190;6.808;2024-03-22T03:40:43;101676.28;;;18.57;60.67
62617;BME280;76316;51.190;6.808;2024-03-22T03:43:09;101675.47;;;18.53;61.09
62617;BME280;76316;51.190;6.808;2024-03-22T03:45:37;101668.47;;;18.54;61.21
62617;BME280;76316;51.190;6.808;2024-03-22T03:48:03;101668.53;;;18.50;61.29
62617;BME280;76316;51.190;6.808;2024-03-22T03:50:29;101662.41;;;18.50;61.29
62617;BME280;76316;51.190;6.808;2024-03-22T03:52:54;101668.59;;;18.47;61.30
62617;BME280;76316;51.190;6.808;2024-03-22T03:55:22;101670.41;;;18.45;61.48
62617;BME280;76316;51.190;6.808;2024-03-22T03:57:50;101668.63;;;18.46;61.35
62617;BME280;76316;51.190;6.808;2024-03-22T04:00:16;101665.16;;;18.45;61.19
62617;BME280;76316;51.190;6.808;2024-03-22T04:02:41;101655.53;;;18.43;61.42
62617;BME280;76316;51.190;6.808;2024-03-22T04:05:07;101653.81;;;18.42;61.43
62617;BME280;76316;51.190;6.808;2024-03-22T04:07:32;101648.59;;;18.40;61.33
62617;BME280;76316;51.190;6.808;2024-03-22T04:09:58;101639.84;;;18.40;61.61
62617;BME280;76316;51.190;6.808;2024-03-22T04:12:25;101633.75;;;18.39;61.54
62617;BME280;76316;51.190;6.808;2024-03-22T04:14:52;101626.75;;;18.38;61.50
62617;BME280;76316;51.190;6.808;2024-03-22T04:17:17;101623.28;;;18.36;61.61
62617;BME280;76316;51.190;6.808;2024-03-22T04:19:43;101627.66;;;18.35;61.68
62617;BME280;76316;51.190;6.808;2024-03-22T04:22:09;101625.97;;;18.33;61.78
62617;BME280;76316;51.190;6.808;2024-03-22T04:24:34;101621.63;;;18.32;61.62
62617;BME280;76316;51.190;6.808;2024-03-22T04:26:59;101621.63;;;18.30;61.98
62617;BME280;76316;51.190;6.808;2024-03-22T04:29:25;101622.53;;;18.29;61.87
62617;BME280;76316;51.190;6.808;2024-03-22T04:31:50;101614.69;;;18.28;61.89
62617;BME280;76316;51.190;6.808;2024-03-22T04:34:16;101611.19;;;18.29;61.60
62617;BME280;76316;51.190;6.808;2024-03-22T04:36:41;101611.06;;;18.33;61.75
62617;BME280;76316;51.190;6.808;2024-03-22T04:39:07;101613.63;;;18.38;61.32
62617;BME280;76316;51.190;6.808;2024-03-22T04:41:35;101600.34;;;18.44;61.18
62617;BME280;76316;51.190;6.808;2024-03-22T04:44:00;101594.97;;;18.50;61.26
62617;BME280;76316;51.190;6.808;2024-03-22T04:46:25;101598.31;;;18.57;60.89
62617;BME280;76316;51.190;6.808;2024-03-22T04:48:51;101603.44;;;18.63;60.74
62617;BME280;76316;51.190;6.808;2024-03-22T04:51:16;101587.56;;;18.68;60.69
62617;BME280;76316;51.190;6.808;2024-03-22T04:53:42;101583.97;;;18.72;60.58
62617;BME280;76316;51.190;6.808;2024-03-22T04:56:07;101581.28;;;18.75;60.37
62617;BME280;76316;51.190;6.808;2024-03-22T04:58:34;101582.97;;;18.78;60.47
62617;BME280;76316;51.190;6.808;2024-03-22T05:00:59;101582.03;;;18.80;60.30
62617;BME280;76316;51.190;6.808;2024-03-22T05:03:25;101574.13;;;18.82;60.34
62617;BME280;76316;51.190;6.808;2024-03-22T05:05:50;101578.47;;;18.83;60.10
62617;BME280;76316;51.190;6.808;2024-03-22T05:08:16;101579.34;;;18.84;60.27
62617;BME280;76316;51.190;6.808;2024-03-22T05:10:43;101574.13;;;18.82;60.15
62617;BME280;76316;51.190;6.808;2024-03-22T05:13:08;101575.88;;;18.81;60.21
62617;BME280;76316;51.190;6.808;2024-03-22T05:15:34;101574.97;;;18.83;60.33
62617;BME280;76316;51.190;6.808;2024-03-22T05:17:59;101580.22;;;18.83;60.50
62617;BME280;76316;51.190;6.808;2024-03-22T05:20:25;101578.44;;;18.85;60.33
62617;BME280;76316;51.190;6.808;2024-03-22T05:22:51;101565.22;;;18.88;59.65
62617;BME280;76316;51.190;6.808;2024-03-22T05:25:17;101566.88;;;18.92;59.64
62617;BME280;76316;51.190;6.808;2024-03-22T05:27:43;101568.53;;;18.98;59.58
62617;BME280;76316;51.190;6.808;2024-03-22T05:30:10;101571.94;;;19.01;59.00
62617;BME280;76316;51.190;6.808;2024-03-22T05:32:38;101577.06;;;19.07;59.80
62617;BME280;76316;51.190;6.808;2024-03-22T05:35:04;101565.56;;;19.12;59.40
62617;BME280;76316;51.190;6.808;2024-03-22T05:37:30;101569.94;;;19.13;59.31
62617;BME280;76316;51.190;6.808;2024-03-22T05:39:56;101568.13;;;19.15;59.15
62617;BME280;76316;51.190;6.808;2024-03-22T05:42:21;101570.75;;;19.15;58.90
62617;BME280;76316;51.190;6.808;2024-03-22T05:44:47;101572.47;;;19.17;58.99
62617;BME280;76316;51.190;6.808;2024-03-22T05:47:13;101568.94;;;19.18;58.67
62617;BME280;76316;51.190;6.808;2024-03-22T05:49:38;101568.88;;;19.20;58.93
62617;BME280;76316;51.190;6.808;2024-03-22T05:52:04;101562.78;;;19.19;59.11
62617;BME280;76316;51.190;6.808;2024-03-22T05:54:30;101559.25;;;19.19;59.19
62617;BME280;76316;51.190;6.808;2024-03-22T05:56:55;101564.50;;;19.20;59.29
62617;BME280;76316;51.190;6.808;2024-03-22T05:59:21;101553.06;;;19.21;59.07
62617;BME280;76316;51.190;6.808;2024-03-22T06:01:46;101555.66;;;19.23;58.99
62617;BME280;76316;51.190;6.808;2024-03-22T06:04:12;101570.44;;;19.27;59.48
62617;BME280;76316;51.190;6.808;2024-03-22T06:06:37;101563.44;;;19.28;58.91
62617;BME280;76316;51.190;6.808;2024-03-22T06:09:03;101559.84;;;19.30;59.08
62617;BME280;76316;51.190;6.808;2024-03-22T06:11:32;101562.38;;;19.35;58.97
62617;BME280;76316;51.190;6.808;2024-03-22T06:13:57;101566.69;;;19.37;59.04
62617;BME280;76316;51.190;6.808;2024-03-22T06:16:23;101562.31;;;19.38;58.39
62617;BME280;76316;51.190;6.808;2024-03-22T06:18:48;101563.16;;;19.38;57.85
62617;BME280;76316;51.190;6.808;2024-03-22T06:21:14;101559.63;;;19.39;57.99
62617;BME280;76316;51.190;6.808;2024-03-22T06:23:40;101559.53;;;19.43;58.07
62617;BME280;76316;51.190;6.808;2024-03-22T06:26:06;101547.22;;;19.45;58.34
62617;BME280;76316;51.190;6.808;2024-03-22T06:28:33;101545.47;;;19.44;58.22
62617;BME280;76316;51.190;6.808;2024-03-22T06:30:58;101543.69;;;19.46;58.53
62617;BME280;76316;51.190;6.808;2024-03-22T06:33:24;101534.88;;;19.47;58.53
62617;BME280;76316;51.190;6.808;2024-03-22T06:35:49;101538.34;;;19.49;58.31
62617;BME280;76316;51.190;6.808;2024-03-22T06:38:14;101530.41;;;19.50;58.24
62617;BME280;76316;51.190;6.808;2024-03-22T06:40:40;101532.97;;;19.53;58.23
62617;BME280;76316;51.190;6.808;2024-03-22T06:43:06;101530.28;;;19.55;58.07
62617;BME280;76316;51.190;6.808;2024-03-22T06:45:31;101530.25;;;19.57;57.93
62617;BME280;76316;51.190;6.808;2024-03-22T06:47:56;101528.38;;;19.60;57.84
62617;BME280;76316;51.190;6.808;2024-03-22T06:50:22;101525.66;;;19.63;58.02
62617;BME280;76316;51.190;6.808;2024-03-22T06:52:51;101534.31;;;19.68;57.78
62617;BME280;76316;51.190;6.808;2024-03-22T06:55:18;101528.97;;;19.72;57.83
62617;BME280;76316;51.190;6.808;2024-03-22T06:57:47;101537.59;;;19.77;57.58
62617;BME280;76316;51.190;6.808;2024-03-22T07:00:14;101533.97;;;19.81;57.47
62617;BME280;76316;51.190;6.808;2024-03-22T07:02:40;101530.41;;;19.83;57.45
62617;BME280;76316;51.190;6.808;2024-03-22T07:05:09;101520.59;;;19.89;57.31
62617;BME280;76316;51.190;6.808;2024-03-22T07:07:36;101511.75;;;19.93;57.68
62617;BME280;76316;51.190;6.808;2024-03-22T07:10:02;101508.13;;;19.97;58.43
62617;BME280;76316;51.190;6.808;2024-03-22T07:12:29;101512.38;;;20.01;58.03
62617;BME280;76316;51.190;6.808;2024-03-22T07:14:55;101516.75;;;20.02;58.06
62617;BME280;76316;51.190;6.808;2024-03-22T07:17:21;101515.84;;;20.03;58.02
62617;BME280;76316;51.190;6.808;2024-03-22T07:19:53;101523.69;;;20.05;57.85
62617;BME280;76316;51.190;6.808;2024-03-22T07:22:19;101520.19;;;20.04;57.55
62617;BME280;76316;51.190;6.808;2024-03-22T07:24:46;101516.56;;;20.08;57.73
62617;BME280;76316;51.190;6.808;2024-03-22T07:27:12;101517.38;;;20.10;58.08
62617;BME280;76316;51.190;6.808;2024-03-22T07:29:39;101508.50;;;20.13;58.32
62617;BME280;76316;51.190;6.808;2024-03-22T07:32:05;101518.06;;;20.17;58.27
62617;BME280;76316;51.190;6.808;2024-03-22T07:34:31;101514.41;;;20.21;57.98
62617;BME280;76316;51.190;6.808;2024-03-22T07:36:56;101522.22;;;20.24;58.23
62617;BME280;76316;51.190;6.808;2024-03-22T07:39:22;101516.88;;;20.27;58.27
62617;BME280;76316;51.190;6.808;2024-03-22T07:41:49;101521.13;;;20.33;58.18
62617;BME280;76316;51.190;6.808;2024-03-22T07:44:15;101514.88;;;20.36;58.07
62617;BME280;76316;51.190;6.808;2024-03-22T07:46:43;101520.88;;;20.41;57.86
62617;BME280;76316;51.190;6.808;2024-03-22T07:49:09;101517.28;;;20.44;57.06
62617;BME280;76316;51.190;6.808;2024-03-22T07:51:35;101510.13;;;20.47;57.36
62617;BME280;76316;51.190;6.808;2024-03-22T07:54:00;101503.84;;;20.51;57.33
62617;BME280;76316;51.190;6.808;2024-03-22T07:56:27;101505.56;;;20.54;57.05
62617;BME280;76316;51.190;6.808;2024-03-22T07:58:53;101512.47;;;20.56;56.84
62617;BME280;76316;51.190;6.808;2024-03-22T08:01:18;101514.13;;;20.61;57.13
62617;BME280;76316;51.190;6.808;2024-03-22T08:03:44;101511.38;;;20.64;56.98
62617;BME280;76316;51.190;6.808;2024-03-22T08:06:09;101512.16;;;20.67;56.70
62617;BME280;76316;51.190;6.808;2024-03-22T08:08:35;101497.09;;;20.71;56.64
62617;BME280;76316;51.190;6.808;2024-03-22T08:11:00;101499.63;;;20.74;55.92
62617;BME280;76316;51.190;6.808;2024-03-22T08:13:25;101498.69;;;20.77;56.14
62617;BME280;76316;51.190;6.808;2024-03-22T08:15:51;101494.25;;;20.79;56.20
62617;BME280;76316;51.190;6.808;2024-03-22T08:18:16;101495.06;;;20.81;55.99
62617;BME280;76316;51.190;6.808;2024-03-22T08:20:42;101501.25;;;20.80;56.19
62617;BME280;76316;51.190;6.808;2024-03-22T08:23:07;101498.53;;;20.83;56.15
62617;BME280;76316;51.190;6.808;2024-03-22T08:25:33;101495.81;;;20.84;55.44
62617;BME280;76316;51.190;6.808;2024-03-22T08:27:59;101498.34;;;20.88;55.27
62617;BME280;76316;51.190;6.808;2024-03-22T08:30:24;101498.22;;;20.92;55.49
62617;BME280;76316;51.190;6.808;2024-03-22T08:32:51;101495.50;;;20.94;54.85
62617;BME280;76316;51.190;6.808;2024-03-22T08:35:17;101495.50;;;20.94;54.88
62617;BME280;76316;51.190;6.808;2024-03-22T08:37:43;101494.56;;;20.96;55.07
62617;BME280;76316;51.190;6.808;2024-03-22T08:40:08;101490.03;;;21.00;54.98
62617;BME280;76316;51.190;6.808;2024-03-22T08:42:36;101495.09;;;21.06;54.35
62617;BME280;76316;51.190;6.808;2024-03-22T08:45:01;101488.00;;;21.08;53.68
62617;BME280;76316;51.190;6.808;2024-03-22T08:47:29;101493.97;;;21.13;54.13
62617;BME280;76316;51.190;6.808;2024-03-22T08:49:55;101490.31;;;21.18;54.66
62617;BME280;76316;51.190;6.808;2024-03-22T08:52:22;101480.47;;;21.23;54.94
62617;BME280;76316;51.190;6.808;2024-03-22T08:54:49;101484.63;;;21.30;53.63
62617;BME280;76316;51.190;6.808;2024-03-22T08:57:15;101488.88;;;21.34;54.51
62617;BME280;76316;51.190;6.808;2024-03-22T08:59:41;101475.50;;;21.39;53.47
62617;BME280;76316;51.190;6.808;2024-03-22T09:02:06;101484.19;;;21.42;53.96
62617;BME280;76316;51.190;6.808;2024-03-22T09:04:32;101472.59;;;21.47;54.14
62617;BME280;76316;51.190;6.808;2024-03-22T09:06:57;101470.69;;;21.50;53.89
62617;BME280;76316;51.190;6.808;2024-03-22T09:09:23;101472.38;;;21.53;53.27
62617;BME280;76316;51.190;6.808;2024-03-22T09:11:49;101470.56;;;21.55;53.11
62617;BME280;76316;51.190;6.808;2024-03-22T09:14:14;101468.72;;;21.57;53.56
62617;BME280;76316;51.190;6.808;2024-03-22T09:16:39;101474.91;;;21.56;52.68
62617;BME280;76316;51.190;6.808;2024-03-22T09:19:05;101469.63;;;21.56;53.09
62617;BME280;76316;51.190;6.808;2024-03-22T09:21:31;101460.81;;;21.57;53.10
62617;BME280;76316;51.190;6.808;2024-03-22T09:23:57;101458.97;;;21.59;53.03
62617;BME280;76316;51.190;6.808;2024-03-22T09:26:22;101455.31;;;21.63;53.32
62617;BME280;76316;51.190;6.808;2024-03-22T09:28:48;101460.28;;;21.72;53.21
62617;BME280;76316;51.190;6.808;2024-03-22T09:31:15;101460.84;;;21.81;52.40
62617;BME280;76316;51.190;6.808;2024-03-22T09:33:43;101453.59;;;21.86;52.87
62617;BME280;76316;51.190;6.808;2024-03-22T09:36:08;101446.28;;;21.93;52.55
62617;BME280;76316;51.190;6.808;2024-03-22T09:38:34;101450.38;;;22.01;53.14
62617;BME280;76316;51.190;6.808;2024-03-22T09:40:59;101462.34;;;22.10;53.07
62617;BME280;76316;51.190;6.808;2024-03-22T09:43:26;101448.75;;;22.21;52.52
62617;BME280;76316;51.190;6.808;2024-03-22T09:45:54;101444.00;;;22.29;52.62
62617;BME280;76316;51.190;6.808;2024-03-22T09:48:20;101444.81;;;22.31;51.96
62617;BME280;76316;51.190;6.808;2024-03-22T09:50:46;101435.84;;;22.36;52.05
62617;BME280;76316;51.190;6.808;2024-03-22T09:53:18;101449.78;;;22.39;52.26
62617;BME280;76316;51.190;6.808;2024-03-22T09:55:47;101437.31;;;22.43;52.10
62617;BME280;76316;51.190;6.808;2024-03-22T09:58:14;101442.97;;;22.34;47.33
62617;BME280;76316;51.190;6.808;2024-03-22T10:00:42;101438.09;;;22.00;46.54
62617;BME280;76316;51.190;6.808;2024-03-22T10:03:07;101428.69;;;21.93;48.51
62617;BME280;76316;51.190;6.808;2024-03-22T10:05:35;101422.59;;;21.67;46.80
62617;BME280;76316;51.190;6.808;2024-03-22T10:08:01;101428.44;;;21.52;46.33
62617;BME280;76316;51.190;6.808;2024-03-22T10:10:28;101423.38;;;21.46;46.54
62617;BME280;76316;51.190;6.808;2024-03-22T10:12:53;101424.78;;;21.30;45.98
62617;BME280;76316;51.190;6.808;2024-03-22T10:15:19;101421.69;;;21.19;45.91
62617;BME280;76316;51.190;6.808;2024-03-22T10:17:45;101413.22;;;21.09;46.21
62617;BME280;76316;51.190;6.808;2024-03-22T10:20:13;101416.13;;;21.02;46.69
62617;BME280;76316;51.190;6.808;2024-03-22T10:22:58;101406.25;;;20.81;45.43
62617;BME280;76316;51.190;6.808;2024-03-22T10:25:26;101405.19;;;20.87;47.17
62617;BME280;76316;51.190;6.808;2024-03-22T10:27:54;101410.50;;;20.85;47.40
62617;BME280;76316;51.190;6.808;2024-03-22T10:30:20;101407.97;;;20.82;47.65
62617;BME280;76316;51.190;6.808;2024-03-22T10:32:48;101396.75;;;20.76;47.31
62617;BME280;76316;51.190;6.808;2024-03-22T10:35:15;101390.72;;;20.72;47.38
62617;BME280;76316;51.190;6.808;2024-03-22T10:37:42;101386.25;;;20.74;47.29
62617;BME280;76316;51.190;6.808;2024-03-22T10:40:09;101383.09;;;20.64;47.33
62617;BME280;76316;51.190;6.808;2024-03-22T10:42:35;101382.22;;;20.64;47.22
62617;BME280;76316;51.190;6.808;2024-03-22T10:45:07;101383.53;;;20.50;47.13
62617;BME280;76316;51.190;6.808;2024-03-22T10:47:35;101387.19;;;20.46;48.32
62617;BME280;76316;51.190;6.808;2024-03-22T10:52:37;101375.81;;;20.44;47.65
62617;BME280;76316;51.190;6.808;2024-03-22T10:55:07;101371.63;;;20.38;47.34
62617;BME280;76316;51.190;6.808;2024-03-22T10:57:37;101367.41;;;20.33;47.48
62617;BME280;76316;51.190;6.808;2024-03-22T11:00:08;101361.22;;;20.34;47.60
62617;BME280;76316;51.190;6.808;2024-03-22T11:02:35;101345.47;;;20.32;47.61
62617;BME280;76316;51.190;6.808;2024-03-22T11:05:04;101356.56;;;20.42;47.99
62617;BME280;76316;51.190;6.808;2024-03-22T11:07:31;101359.38;;;20.37;46.93
62617;BME280;76316;51.190;6.808;2024-03-22T11:09:57;101351.50;;;20.36;47.54
62617;BME280;76316;51.190;6.808;2024-03-22T11:12:25;101351.50;;;20.36;48.11
62617;BME280;76316;51.190;6.808;2024-03-22T11:14:55;101338.22;;;20.39;47.75
62617;BME280;76316;51.190;6.808;2024-03-22T11:17:20;101351.59;;;20.33;47.22
62617;BME280;76316;51.190;6.808;2024-03-22T11:19:51;101353.31;;;20.34;46.85
62617;BME280;76316;51.190;6.808;2024-03-22T11:22:17;101349.69;;;20.38;48.26
62617;BME280;76316;51.190;6.808;2024-03-22T11:24:44;101352.50;;;20.32;47.21
62617;BME280;76316;51.190;6.808;2024-03-22T11:27:10;101339.59;;;20.24;47.16
62617;BME280;76316;51.190;6.808;2024-03-22T11:29:37;101330.28;;;20.14;46.83
62617;BME280;76316;51.190;6.808;2024-03-22T11:32:09;101334.06;;;20.32;48.04
62617;BME280;76316;51.190;6.808;2024-03-22T11:34:44;101326.78;;;20.40;48.05
62617;BME280;76316;51.190;6.808;2024-03-22T11:37:11;101331.19;;;20.39;46.14
62617;BME280;76316;51.190;6.808;2024-03-22T11:39:37;101347.66;;;20.46;47.68
62617;BME280;76316;51.190;6.808;2024-03-22T11:42:06;101340.25;;;20.58;47.46
62617;BME280;76316;51.190;6.808;2024-03-22T11:44:38;101333.41;;;20.52;46.03
62617;BME280;76316;51.190;6.808;2024-03-22T11:47:05;101334.53;;;20.70;46.66
62617;BME280;76316;51.190;6.808;2024-03-22T11:49:30;101329.25;;;20.97;44.88
62617;BME280;76316;51.190;6.808;2024-03-22T11:51:56;101330.94;;;20.99;44.89
62617;BME280;76316;51.190;6.808;2024-03-22T11:54:22;101332.47;;;21.05;45.62
62617;BME280;76316;51.190;6.808;2024-03-22T11:56:49;101341.19;;;21.07;46.41
62617;BME280;76316;51.190;6.808;2024-03-22T11:59:15;101336.25;;;21.22;44.79
62617;BME280;76316;51.190;6.808;2024-03-22T12:01:44;101329.19;;;21.22;45.55
62617;BME280;76316;51.190;6.808;2024-03-22T12:04:10;101322.19;;;21.21;45.07
62617;BME280;76316;51.190;6.808;2024-03-22T12:06:41;101322.38;;;21.40;44.89
62617;BME280;76316;51.190;6.808;2024-03-22T12:09:11;101326.97;;;21.35;44.31
62617;BME280;76316;51.190;6.808;2024-03-22T12:11:39;101321.94;;;21.29;44.58
62617;BME280;76316;51.190;6.808;2024-03-22T12:14:05;101318.94;;;21.14;45.55
62617;BME280;76316;51.190;6.808;2024-03-22T12:16:30;101324.66;;;21.02;44.96
62617;BME280;76316;51.190;6.808;2024-03-22T12:18:56;101310.63;;;21.02;46.02
62617;BME280;76316;51.190;6.808;2024-03-22T12:21:21;101312.16;;;21.07;45.43
62617;BME280;76316;51.190;6.808;2024-03-22T12:23:47;101311.53;;;21.00;44.64
62617;BME280;76316;51.190;6.808;2024-03-22T12:26:12;101310.66;;;21.00;44.95
62617;BME280;76316;51.190;6.808;2024-03-22T12:28:38;101310.97;;;20.92;46.26
62617;BME280;76316;51.190;6.808;2024-03-22T12:31:04;101300.34;;;20.94;46.09
62617;BME280;76316;51.190;6.808;2024-03-22T12:33:30;101291.41;;;20.73;45.48
62617;BME280;76316;51.190;6.808;2024-03-22T12:35:55;101286.97;;;20.73;46.35
62617;BME280;76316;51.190;6.808;2024-03-22T12:38:21;101284.13;;;20.81;46.16
62617;BME280;76316;51.190;6.808;2024-03-22T12:40:46;101275.59;;;20.73;46.30
62617;BME280;76316;51.190;6.808;2024-03-22T12:43:12;101280.41;;;20.60;47.43
62617;BME280;76316;51.190;6.808;2024-03-22T12:45:38;101272.91;;;20.49;46.25
62617;BME280;76316;51.190;6.808;2024-03-22T12:48:04;101277.50;;;20.42;48.17